Acedillo, Spain

10:51 AM CEST on June 24, 2017 (GMT +0200)
Avd. Cid Campeador,nº6 | | Change Station

Elev 2805 ft 42.42 °N, 3.68 °W | Updated 5 minutes ago

Partly Cloudy
Partly Cloudy
64.2 °F
Feels Like 64.2 °F
N
6.0
Wind Variable Wind from NE
Gusts 14.0 mph

Today
High -- | Low -- °F
--% Chance of Precip.
Yesterday
High -- | Low -- °F
Precip. -- in
Pressure 30.24 in
Visibility 6.2 miles
Clouds Few 1000 ft
Dew Point 55 °F
Humidity 71%
Rainfall 0.00 in
Snow Depth Not available.
6:38 AM 9:57 PM
New Moon, 0% visible
METAR LEBG 240830Z 04009KT 010V070 9999 FEW010 17/12 Q1024
Pressure 30.24 in
Visibility 6.2 miles
Clouds Few 1000 ft
Dew Point 55 °F
Humidity 71%
Rainfall 0.00 in
Snow Depth Not available.
6:38 AM 9:57 PM
New Moon, 0% visible
METAR LEBG 240830Z 04009KT 010V070 9999 FEW010 17/12 Q1024

Get Severe Weather Alerts

Thanks for signing up!

Be on the lookout for a verification email in your inbox.

You'll start receiving the daily forecast at 6 AM.

×

10-Day Weather Forecast

×

Almanac

Astronomy

Jun. 24, 2017 Rise Set
Actual Time
Civil Twilight
Nautical Twilight
Astronomical Twilight
Moon
Length of Visible Light
Length of Day
Tomorrow will be .
, % of the Moon is Illuminated

Today's Extremes

Country Highs Country Lows

Community

WunderPhotos

Category 6

Welcome to Category 6. This is the collective home for Weather Underground's featured writeups by Dr. Jeff Masters (right), Bob Henson (left), Chris Burt, and other regular contributors.

Nearby

Air Quality

  Air Quality AQ Index Pollutant
Not available.

Snow Depth

Station Depth Elevation

Earthquake Activity

City Distance Mag. Time & Date
Minimum magnitude displayed is 2.5.

Coastal Water Temperatures

Place Temperature

Stations

Nearby Weather Stations

Station Location Temp. Windchill Dew Point Humidity Wind Precip. Elev Updated Type